Time;durP1;ratioP1;P1;durP2;ratioP2;P2;SDS_P1;SDS_P2;PMS_P1;PMS_P2;Temp;Humidity;BMP_temperature;BMP_pressure;BME280_temperature;BME280_humidity;BME280_pressure;Samples;Min_cycle;Max_cycle;Signal;HPM_P1;HPM_P2
2023/08/15 00:01:37;;;;;;;1552.20;999.90;;;27.20;99.90;;;;;;5033409;28;20052;-64
2023/08/15 00:04:03;;;;;;;1516.72;999.90;;;27.20;99.90;;;;;;5033276;28;20026;-64
2023/08/15 00:06:30;;;;;;;1507.82;999.90;;;27.10;99.90;;;;;;5033071;28;20018;-65
2023/08/15 00:08:58;;;;;;;1517.13;999.90;;;27.20;99.90;;;;;;5033454;28;20017;-65
2023/08/15 00:11:24;;;;;;;1534.78;999.90;;;27.30;99.90;;;;;;5032599;28;20143;-64
2023/08/15 00:13:55;;;;;;;1561.35;999.90;;;27.30;99.90;;;;;;5033080;28;20052;-68
2023/08/15 00:16:22;;;;;;;1537.72;999.90;;;27.30;99.90;;;;;;5032938;28;20021;-68
2023/08/15 00:18:49;;;;;;;1561.00;999.90;;;27.20;99.90;;;;;;5033048;28;20022;-68
2023/08/15 00:21:15;;;;;;;1536.43;999.90;;;27.30;99.90;;;;;;5033047;28;20032;-65
2023/08/15 00:23:42;;;;;;;1535.20;999.90;;;27.30;99.90;;;;;;5033302;28;20373;-66
2023/08/15 00:26:08;;;;;;;1516.07;999.90;;;27.40;99.90;;;;;;5032922;28;20021;-65
2023/08/15 00:28:35;;;;;;;1533.05;999.90;;;27.30;99.90;;;;;;5032975;28;20549;-66
2023/08/15 00:31:01;;;;;;;1513.00;999.90;;;27.30;99.90;;;;;;5033078;28;20033;-64
2023/08/15 00:33:28;;;;;;;1533.10;999.90;;;27.30;99.90;;;;;;5033001;28;20080;-65
2023/08/15 00:35:54;;;;;;;1483.35;999.90;;;27.30;99.90;;;;;;5032956;28;20148;-65
2023/08/15 00:38:21;;;;;;;1532.13;999.90;;;27.30;99.90;;;;;;5032739;28;20029;-64
2023/08/15 00:40:47;;;;;;;1546.75;999.90;;;27.30;99.90;;;;;;5032991;28;20037;-67
2023/08/15 00:43:17;;;;;;;1560.25;999.90;;;27.30;99.90;;;;;;5032449;28;20087;-63
2023/08/15 00:45:44;;;;;;;1544.93;999.90;;;27.40;99.90;;;;;;5012726;28;20072;-64
2023/08/15 00:48:11;;;;;;;1564.03;999.90;;;27.40;99.90;;;;;;5013134;28;20013;-64
2023/08/15 00:50:40;;;;;;;1567.07;999.90;;;27.40;99.90;;;;;;5013277;28;20384;-63
2023/08/15 00:53:08;;;;;;;1561.00;999.90;;;27.40;99.90;;;;;;5012943;28;20018;-67
2023/08/15 00:55:35;;;;;;;1544.55;999.90;;;27.40;99.90;;;;;;5012877;28;20084;-68
2023/08/15 00:58:01;;;;;;;1548.07;999.90;;;27.50;99.90;;;;;;5013000;28;20026;-65
2023/08/15 01:00:28;;;;;;;1568.35;999.90;;;27.50;99.90;;;;;;5012747;28;20088;-67
2023/08/15 01:02:55;;;;;;;1466.80;999.90;;;27.60;99.90;;;;;;5016253;28;20018;-65
2023/08/15 01:05:22;;;;;;;1543.53;999.90;;;27.70;99.90;;;;;;5016590;28;20014;-65
2023/08/15 01:07:49;;;;;;;1571.75;999.90;;;27.80;99.90;;;;;;5016320;28;20033;-65
2023/08/15 01:10:16;;;;;;;1551.10;999.90;;;27.90;99.90;;;;;;5027003;28;20112;-65
2023/08/15 01:12:46;;;;;;;1516.70;999.90;;;28.00;99.90;;;;;;5036340;28;20037;-65
2023/08/15 01:15:19;;;;;;;1554.90;999.90;;;28.00;99.90;;;;;;5028529;28;20107;-64
2023/08/15 01:18:05;;;;;;;;;;;28.10;99.90;;;;;;5026344;28;20129;-67
2023/08/15 01:20:36;;;;;;;1519.90;999.90;;;28.20;99.90;;;;;;5028803;28;19913;-68
2023/08/15 01:23:06;;;;;;;1465.68;999.90;;;28.30;99.90;;;;;;5036129;28;20361;-65
2023/08/15 01:25:39;;;;;;;1499.72;999.90;;;28.30;99.90;;;;;;5036162;28;20032;-64
2023/08/15 01:28:10;;;;;;;1479.90;999.90;;;28.40;99.90;;;;;;5035811;28;20034;-65
2023/08/15 01:30:37;;;;;;;1507.50;999.90;;;28.50;99.90;;;;;;5016227;28;20492;-65
2023/08/15 01:33:14;;;;;;;1509.10;999.90;;;28.50;99.90;;;;;;5015970;28;20037;-65
2023/08/15 01:36:00;;;;;;;1514.85;999.90;;;28.40;99.90;;;;;;5015970;28;20510;-66
2023/08/15 01:38:41;;;;;;;1524.07;999.90;;;28.50;99.90;;;;;;5034784;28;20052;-65
2023/08/15 01:41:10;;;;;;;1497.78;999.90;;;28.50;99.90;;;;;;5034604;28;20120;-64
2023/08/15 01:43:39;;;;;;;1520.03;999.90;;;28.50;99.90;;;;;;5034590;28;20017;-64
2023/08/15 01:46:07;;;;;;;1509.93;999.90;;;28.60;99.90;;;;;;5034459;28;20075;-64
2023/08/15 01:48:40;;;;;;;1480.32;999.90;;;28.70;99.90;;;;;;5029517;28;20047;-65
2023/08/15 01:51:06;;;;;;;1468.13;999.90;;;28.80;99.90;;;;;;5035049;28;20037;-64
2023/08/15 01:53:34;;;;;;;1497.22;999.90;;;28.90;99.90;;;;;;5035136;28;20017;-66
2023/08/15 01:56:01;;;;;;;1491.95;999.90;;;29.00;99.90;;;;;;5034896;28;20472;-66
2023/08/15 01:58:27;;;;;;;1498.63;999.90;;;29.00;99.90;;;;;;5034992;28;20041;-66
2023/08/15 02:00:54;;;;;;;1481.78;999.90;;;29.10;99.90;;;;;;5034950;28;20021;-65
2023/08/15 02:03:20;;;;;;;1465.13;999.90;;;29.10;99.90;;;;;;5034773;28;20010;-66
2023/08/15 02:05:47;;;;;;;1486.65;999.90;;;29.10;99.90;;;;;;5034923;28;20484;-66
2023/08/15 02:08:13;;;;;;;1484.35;999.90;;;29.20;99.90;;;;;;5034950;28;20357;-65
2023/08/15 02:10:40;;;;;;;1518.05;999.90;;;29.20;99.90;;;;;;5034943;28;20029;-66
2023/08/15 02:13:06;;;;;;;1527.40;999.90;;;29.30;99.90;;;;;;5033546;28;20040;-66
2023/08/15 02:15:33;;;;;;;1479.65;999.90;;;29.30;99.90;;;;;;5032824;28;20379;-66
2023/08/15 02:17:59;;;;;;;1485.80;999.90;;;29.40;99.90;;;;;;5034281;28;20139;-66
2023/08/15 02:20:26;;;;;;;1483.05;999.90;;;29.40;99.90;;;;;;5034613;28;20032;-66
2023/08/15 02:22:53;;;;;;;1493.10;999.90;;;29.50;99.90;;;;;;5034868;28;20021;-66
2023/08/15 02:25:19;;;;;;;1484.18;999.90;;;29.50;99.90;;;;;;5034799;28;20030;-68
2023/08/15 02:27:46;;;;;;;1497.78;999.90;;;29.50;99.90;;;;;;5034114;28;20025;-66
2023/08/15 02:30:13;;;;;;;1501.40;999.90;;;29.60;99.90;;;;;;5034232;28;20480;-66
2023/08/15 02:32:39;;;;;;;1511.20;999.90;;;29.60;99.90;;;;;;5034228;28;20021;-66
2023/08/15 02:35:06;;;;;;;1510.25;999.90;;;29.70;99.90;;;;;;5034139;28;20384;-65
2023/08/15 02:37:34;;;;;;;1517.35;999.90;;;29.80;99.90;;;;;;5033913;28;20075;-66
2023/08/15 02:40:00;;;;;;;1490.20;999.90;;;29.80;99.90;;;;;;5034061;28;20040;-65
2023/08/15 02:42:27;;;;;;;1532.85;999.90;;;30.00;99.90;;;;;;5034018;28;20025;-67
2023/08/15 02:44:55;;;;;;;1500.30;999.90;;;30.00;99.90;;;;;;5034014;28;20010;-67
2023/08/15 02:47:21;;;;;;;1497.18;999.90;;;30.10;99.90;;;;;;5034233;28;20104;-68
2023/08/15 02:49:48;;;;;;;1510.07;999.90;;;30.10;99.90;;;;;;5034276;28;20043;-70
2023/08/15 02:52:14;;;;;;;1489.60;999.90;;;30.10;99.90;;;;;;5034253;28;20056;-70
2023/08/15 02:54:41;;;;;;;1468.43;999.90;;;30.20;99.90;;;;;;5034365;28;20027;-70
2023/08/15 02:57:07;;;;;;;1499.75;999.90;;;30.20;99.90;;;;;;5034076;28;20025;-69
2023/08/15 02:59:34;;;;;;;1521.80;999.90;;;30.30;99.90;;;;;;5034359;28;20025;-69
2023/08/15 03:02:00;;;;;;;1470.65;999.90;;;30.40;99.90;;;;;;5034146;28;20036;-66
2023/08/15 03:04:27;;;;;;;1515.30;999.90;;;30.50;99.90;;;;;;5033905;28;20029;-64
2023/08/15 03:06:54;;;;;;;1519.45;999.90;;;30.50;99.90;;;;;;5034116;28;20476;-64
2023/08/15 03:09:20;;;;;;;1514.25;999.90;;;30.50;99.90;;;;;;5034065;28;20079;-65
2023/08/15 03:11:47;;;;;;;1511.38;999.90;;;30.50;99.90;;;;;;5033968;28;20068;-64
2023/08/15 03:14:13;;;;;;;1542.07;999.90;;;30.50;99.90;;;;;;5034250;28;20025;-63
2023/08/15 03:16:40;;;;;;;1565.22;999.90;;;30.60;99.90;;;;;;5033818;28;20020;-64
2023/08/15 03:19:06;;;;;;;1573.32;999.90;;;30.60;99.90;;;;;;5033820;28;20045;-66
2023/08/15 03:21:33;;;;;;;1536.25;999.90;;;30.60;99.90;;;;;;5034126;28;20055;-64
2023/08/15 03:24:00;;;;;;;1529.22;999.90;;;30.60;99.90;;;;;;5026785;28;20022;-64
2023/08/15 03:26:28;;;;;;;1525.00;999.90;;;30.60;99.90;;;;;;5013926;28;20105;-65
2023/08/15 03:28:56;;;;;;;1527.22;999.90;;;30.70;99.90;;;;;;5013972;28;20453;-66
2023/08/15 03:31:23;;;;;;;1526.30;999.90;;;30.70;99.90;;;;;;5013841;28;20030;-68
2023/08/15 03:33:50;;;;;;;1513.05;999.90;;;30.80;99.90;;;;;;5013868;28;20025;-63
2023/08/15 03:36:16;;;;;;;1507.10;999.90;;;30.90;99.90;;;;;;5013800;28;20571;-63
2023/08/15 03:38:43;;;;;;;1525.63;999.90;;;31.00;99.90;;;;;;5013742;28;20079;-65
2023/08/15 03:41:09;;;;;;;1537.28;999.90;;;31.00;99.90;;;;;;5013597;28;20064;-63
2023/08/15 03:43:36;;;;;;;1549.95;999.90;;;31.10;99.90;;;;;;5014543;28;20093;-65
2023/08/15 03:46:05;;;;;;;1540.70;999.90;;;31.20;99.90;;;;;;5014259;28;20034;-64
2023/08/15 03:48:32;;;;;;;1552.07;999.90;;;31.30;99.90;;;;;;5014188;28;20479;-65
2023/08/15 03:51:00;;;;;;;1526.20;999.90;;;31.30;99.90;;;;;;5014452;28;20032;-65
2023/08/15 03:53:27;;;;;;;1511.32;999.90;;;31.30;99.90;;;;;;5014601;28;20053;-64
2023/08/15 03:55:54;;;;;;;1526.15;999.90;;;31.20;99.90;;;;;;5014431;28;20018;-64
2023/08/15 03:58:22;;;;;;;1529.18;999.90;;;31.30;99.90;;;;;;5013948;28;20022;-64
2023/08/15 04:00:49;;;;;;;1497.57;999.90;;;31.20;99.90;;;;;;5013588;28;20037;-68
2023/08/15 04:03:16;;;;;;;1534.40;999.90;;;31.20;99.90;;;;;;5015463;28;20380;-64
2023/08/15 04:05:45;;;;;;;1523.57;999.90;;;31.20;99.90;;;;;;5033219;28;20626;-67
2023/08/15 04:08:12;;;;;;;1534.20;999.90;;;31.20;99.90;;;;;;5033423;28;20492;-64
2023/08/15 04:10:39;;;;;;;1542.05;999.90;;;31.10;99.90;;;;;;5033275;28;20033;-64
2023/08/15 04:13:09;;;;;;;1530.72;999.90;;;31.10;99.90;;;;;;5033712;28;20438;-64
2023/08/15 04:15:37;;;;;;;1537.65;999.90;;;31.10;99.90;;;;;;5033337;28;20110;-65
2023/08/15 04:18:06;;;;;;;1532.70;999.90;;;31.10;99.90;;;;;;5031763;28;20025;-66
2023/08/15 04:20:36;;;;;;;1540.97;999.90;;;31.20;99.90;;;;;;5030966;28;20072;-63
2023/08/15 04:23:03;;;;;;;1539.78;999.90;;;31.10;99.90;;;;;;5023929;28;20037;-64
2023/08/15 04:25:30;;;;;;;1555.95;999.90;;;31.20;99.90;;;;;;5013278;28;20018;-63
2023/08/15 04:27:56;;;;;;;1536.38;999.90;;;31.20;99.90;;;;;;5013517;28;20036;-63
2023/08/15 04:30:23;;;;;;;1543.60;999.90;;;31.10;99.90;;;;;;5028115;28;20056;-66
2023/08/15 04:32:49;;;;;;;1566.10;999.90;;;31.20;99.90;;;;;;5033165;28;20436;-64
2023/08/15 04:35:16;;;;;;;1543.07;999.90;;;31.20;99.90;;;;;;5033697;28;20025;-67
2023/08/15 04:37:43;;;;;;;1538.72;999.90;;;31.20;99.90;;;;;;5036674;28;20056;-65
2023/08/15 04:40:13;;;;;;;1539.63;999.90;;;31.20;99.90;;;;;;5037916;28;20112;-64
2023/08/15 04:42:41;;;;;;;1563.22;999.90;;;31.20;99.90;;;;;;5037752;28;20018;-65
2023/08/15 04:45:08;;;;;;;1562.97;999.90;;;31.20;99.90;;;;;;5037442;28;20104;-64
2023/08/15 04:47:35;;;;;;;1566.20;999.90;;;31.20;99.90;;;;;;5037126;28;20071;-65
2023/08/15 04:50:02;;;;;;;1563.78;999.90;;;31.20;99.90;;;;;;5036720;28;20040;-65
2023/08/15 04:52:28;;;;;;;1585.75;999.90;;;31.20;99.90;;;;;;5036960;28;20038;-63
2023/08/15 04:54:55;;;;;;;1573.15;999.90;;;31.20;99.90;;;;;;5037146;28;20025;-65
2023/08/15 04:57:21;;;;;;;1578.10;999.90;;;31.20;99.90;;;;;;5037346;28;20037;-66
2023/08/15 04:59:48;;;;;;;1555.38;999.90;;;31.20;99.90;;;;;;5037454;28;20108;-65
2023/08/15 05:02:14;;;;;;;1584.70;999.90;;;31.30;99.90;;;;;;5036815;28;20100;-66
2023/08/15 05:04:41;;;;;;;1571.15;999.90;;;31.40;99.90;;;;;;5036653;28;20051;-63
2023/08/15 05:07:07;;;;;;;1573.30;999.90;;;31.40;99.90;;;;;;5036399;28;20017;-63
2023/08/15 05:09:34;;;;;;;1569.28;999.90;;;31.50;99.90;;;;;;5036430;28;20026;-67
2023/08/15 05:12:01;;;;;;;1576.68;999.90;;;31.60;99.90;;;;;;5036679;28;20024;-64
2023/08/15 05:14:27;;;;;;;1565.90;999.90;;;31.60;99.90;;;;;;5036662;28;20051;-64
2023/08/15 05:16:54;;;;;;;1583.03;999.90;;;31.60;99.90;;;;;;5036631;28;20491;-66
2023/08/15 05:19:20;;;;;;;1575.18;999.90;;;31.70;99.90;;;;;;5033712;28;20021;-64
2023/08/15 05:21:47;;;;;;;1544.05;999.90;;;31.70;99.90;;;;;;5036928;28;20014;-65
2023/08/15 05:24:13;;;;;;;1545.05;999.90;;;31.90;99.90;;;;;;5036855;28;20033;-65
2023/08/15 05:26:40;;;;;;;1541.25;999.90;;;31.90;99.90;;;;;;5036982;28;20014;-65
2023/08/15 05:29:06;;;;;;;1534.25;999.90;;;32.00;99.90;;;;;;5036405;28;20022;-69
2023/08/15 05:31:33;;;;;;;1551.18;999.90;;;32.00;99.90;;;;;;5036468;28;20033;-65
2023/08/15 05:33:59;;;;;;;1536.18;999.90;;;32.00;99.90;;;;;;5036442;28;20029;-62
2023/08/15 05:36:26;;;;;;;1541.78;999.90;;;32.00;99.90;;;;;;5036232;28;20052;-65
2023/08/15 05:38:52;;;;;;;1573.10;999.90;;;32.00;99.90;;;;;;5031623;28;20022;-65
2023/08/15 05:41:19;;;;;;;1581.78;999.90;;;32.00;99.90;;;;;;5017100;28;20068;-64
2023/08/15 05:43:45;;;;;;;1594.22;999.90;;;32.00;99.90;;;;;;5034831;28;20104;-63
2023/08/15 05:46:12;;;;;;;1559.00;999.90;;;32.10;99.90;;;;;;5034983;28;20104;-68
2023/08/15 05:48:39;;;;;;;1572.65;999.90;;;32.10;99.90;;;;;;5034889;28;20041;-62
2023/08/15 05:51:05;;;;;;;1556.82;999.90;;;32.10;99.90;;;;;;5034270;28;20439;-63
2023/08/15 05:53:32;;;;;;;1536.65;999.90;;;32.10;99.90;;;;;;5025694;28;20422;-64
2023/08/15 05:55:58;;;;;;;1533.72;999.90;;;32.20;99.90;;;;;;5034747;28;20029;-66
2023/08/15 05:58:25;;;;;;;1532.25;999.90;;;32.20;99.90;;;;;;5022231;28;20535;-65
2023/08/15 06:00:54;;;;;;;1536.80;999.90;;;32.20;99.90;;;;;;5027081;28;20465;-65
2023/08/15 06:03:21;;;;;;;1481.57;999.90;;;32.20;99.90;;;;;;5021938;28;20025;-67
2023/08/15 06:05:47;;;;;;;1480.18;999.90;;;32.20;99.90;;;;;;5016459;28;21289;-65
2023/08/15 06:08:14;;;;;;;1460.95;999.90;;;32.20;99.90;;;;;;5022534;28;20045;-66
2023/08/15 06:10:40;;;;;;;1491.38;999.90;;;32.20;99.90;;;;;;5018895;28;20026;-63
2023/08/15 06:13:07;;;;;;;1487.65;999.90;;;32.20;99.90;;;;;;5016816;28;20336;-65
2023/08/15 06:15:34;;;;;;;1415.35;999.90;;;32.30;99.90;;;;;;5016484;28;20113;-64
2023/08/15 06:18:00;;;;;;;1365.70;999.90;;;32.40;99.90;;;;;;5026236;28;20079;-65
2023/08/15 06:20:27;;;;;;;1227.35;999.90;;;32.50;99.90;;;;;;5020283;28;20225;-65
2023/08/15 06:22:54;;;;;;;1461.05;999.90;;;32.50;99.90;;;;;;5024807;28;20018;-65
2023/08/15 06:25:20;;;;;;;1297.63;999.90;;;32.40;99.90;;;;;;5023249;28;20535;-64
2023/08/15 06:27:47;;;;;;;1354.95;999.90;;;32.40;99.90;;;;;;5024251;28;20038;-65
2023/08/15 06:30:14;;;;;;;1256.63;999.90;;;32.40;99.90;;;;;;5020239;28;20029;-65
2023/08/15 06:32:40;;;;;;;1190.65;999.90;;;32.40;99.90;;;;;;5016469;28;20029;-64
2023/08/15 06:35:08;;;;;;;1512.40;999.90;;;32.50;99.90;;;;;;5022028;28;20029;-65
2023/08/15 06:37:34;;;;;;;1570.40;999.90;;;32.50;99.90;;;;;;5034361;28;20042;-63
2023/08/15 06:40:01;;;;;;;1473.18;999.90;;;32.60;99.90;;;;;;5032254;28;20029;-63
2023/08/15 06:42:28;;;;;;;1244.72;999.90;;;32.60;99.90;;;;;;5028264;28;20030;-65
2023/08/15 06:45:07;;;;;;;1527.50;999.90;;;32.70;99.90;;;;;;5028533;28;20033;-64
2023/08/15 06:47:33;;;;;;;1459.03;999.90;;;32.70;99.90;;;;;;5033961;28;20025;-65
2023/08/15 06:50:00;;;;;;;1405.50;999.90;;;32.80;99.90;;;;;;5030708;28;20464;-65
2023/08/15 06:52:26;;;;;;;1488.05;999.90;;;32.80;99.90;;;;;;5034478;28;20021;-67
2023/08/15 06:54:53;;;;;;;1477.22;999.90;;;32.80;99.90;;;;;;5034173;28;20018;-65
2023/08/15 06:57:19;;;;;;;1542.90;999.90;;;32.80;99.90;;;;;;5034171;28;20029;-65
2023/08/15 06:59:46;;;;;;;1512.28;999.90;;;32.80;99.90;;;;;;5033676;28;20065;-65
2023/08/15 07:02:13;;;;;;;1515.78;999.90;;;32.80;99.90;;;;;;5034099;28;20021;-65
2023/08/15 07:04:40;;;;;;;1376.32;999.90;;;32.80;99.90;;;;;;5033743;28;20369;-65
2023/08/15 07:07:09;;;;;;;1361.90;999.90;;;32.80;99.90;;;;;;5032814;28;20067;-65
2023/08/15 07:09:35;;;;;;;1517.97;999.90;;;32.80;99.90;;;;;;5033939;28;20017;-64
2023/08/15 07:12:05;;;;;;;1517.47;999.90;;;32.80;99.90;;;;;;5033889;28;20076;-65
2023/08/15 07:14:33;;;;;;;1515.85;999.90;;;32.80;99.90;;;;;;5030262;28;20026;-64
2023/08/15 07:17:01;;;;;;;1490.68;999.90;;;32.80;99.90;;;;;;5031622;28;20380;-64
2023/08/15 07:19:27;;;;;;;1495.68;999.90;;;32.80;99.90;;;;;;5032889;28;20033;-65
2023/08/15 07:21:54;;;;;;;1512.55;999.90;;;32.70;99.90;;;;;;5032790;28;20384;-65
2023/08/15 07:24:21;;;;;;;1486.88;999.90;;;32.70;99.90;;;;;;5032908;28;20022;-64
2023/08/15 07:26:48;;;;;;;1517.20;999.90;;;32.70;99.90;;;;;;5032144;28;20030;-64
2023/08/15 07:29:14;;;;;;;1506.82;999.90;;;32.70;99.90;;;;;;5031270;28;20017;-63
2023/08/15 07:31:41;;;;;;;1495.93;999.90;;;32.70;99.90;;;;;;5032813;28;20026;-64
2023/08/15 07:34:07;;;;;;;1520.25;999.90;;;32.70;99.90;;;;;;5031586;28;20041;-63
2023/08/15 07:36:34;;;;;;;1531.45;999.90;;;32.70;99.90;;;;;;5031108;28;20047;-67
2023/08/15 07:39:01;;;;;;;1517.80;999.90;;;32.70;99.90;;;;;;5032211;28;20032;-63
2023/08/15 07:41:27;;;;;;;1523.72;999.90;;;32.70;99.90;;;;;;5027172;28;20037;-64
2023/08/15 07:43:54;;;;;;;1490.03;999.90;;;32.60;99.90;;;;;;5030486;28;20106;-63
2023/08/15 07:46:20;;;;;;;1514.30;999.90;;;32.60;99.90;;;;;;5032886;28;20060;-66
2023/08/15 07:48:47;;;;;;;1515.15;999.90;;;32.60;99.90;;;;;;5031440;28;20025;-66
2023/08/15 07:51:13;;;;;;;1494.97;999.90;;;32.60;99.90;;;;;;5032640;28;20108;-66
2023/08/15 07:53:40;;;;;;;1508.45;999.90;;;32.70;99.90;;;;;;5032258;28;20021;-65
2023/08/15 07:56:06;;;;;;;1517.35;999.90;;;32.80;99.90;;;;;;5031227;28;20104;-64
2023/08/15 07:58:35;;;;;;;1523.97;999.90;;;32.80;99.90;;;;;;5032873;28;20349;-65
2023/08/15 08:01:02;;;;;;;1516.95;999.90;;;32.80;99.90;;;;;;5031223;28;20033;-66
2023/08/15 08:03:29;;;;;;;1516.53;999.90;;;32.90;99.90;;;;;;5032617;28;20233;-65
2023/08/15 08:05:55;;;;;;;1522.22;999.90;;;32.90;99.90;;;;;;5030531;28;20026;-66
2023/08/15 08:08:22;;;;;;;1544.15;999.90;;;33.10;99.90;;;;;;5032586;28;20021;-66
2023/08/15 08:10:49;;;;;;;1558.53;999.90;;;33.20;99.90;;;;;;5032740;28;20392;-66
2023/08/15 08:13:16;;;;;;;1530.78;999.90;;;33.20;99.90;;;;;;5034424;28;20018;-66
2023/08/15 08:15:43;;;;;;;1544.38;999.90;;;33.30;99.90;;;;;;5036929;28;20029;-65
2023/08/15 08:18:10;;;;;;;1521.05;999.90;;;33.40;99.90;;;;;;5037222;28;20029;-65
2023/08/15 08:20:37;;;;;;;1448.65;999.90;;;33.40;99.90;;;;;;5037619;28;20025;-64
2023/08/15 08:23:04;;;;;;;1473.93;999.90;;;33.50;99.90;;;;;;5035901;28;20029;-65
2023/08/15 08:25:30;;;;;;;1517.28;999.90;;;33.50;99.90;;;;;;5036990;28;20112;-65
2023/08/15 08:27:57;;;;;;;1477.50;999.90;;;33.50;99.90;;;;;;5036829;28;20496;-65
2023/08/15 08:30:24;;;;;;;1453.65;999.90;;;33.40;99.90;;;;;;5036868;28;20037;-65
2023/08/15 08:32:51;;;;;;;1511.10;999.90;;;33.40;99.90;;;;;;5036923;28;20039;-66
2023/08/15 08:35:17;;;;;;;1503.00;999.90;;;33.50;99.90;;;;;;5037164;28;20083;-65
2023/08/15 08:37:45;;;;;;;1501.68;999.90;;;33.40;99.90;;;;;;5035132;28;20042;-65
2023/08/15 08:40:12;;;;;;;1447.10;999.90;;;33.40;99.90;;;;;;5036122;28;20033;-65
2023/08/15 08:42:40;;;;;;;1417.20;999.90;;;33.40;99.90;;;;;;5036163;28;20026;-65
2023/08/15 08:45:10;;;;;;;1471.22;999.90;;;33.40;99.90;;;;;;5036475;28;20009;-66
2023/08/15 08:47:39;;;;;;;1395.78;999.90;;;33.40;99.90;;;;;;5035911;28;20022;-66
2023/08/15 08:50:09;;;;;;;1436.43;999.90;;;33.40;99.90;;;;;;5036348;28;20031;-65
2023/08/15 08:52:40;;;;;;;1209.30;999.90;;;33.40;99.90;;;;;;5034169;28;20040;-65
2023/08/15 08:55:11;;;;;;;1197.35;999.90;;;33.40;99.90;;;;;;5035767;28;20022;-66
2023/08/15 08:57:39;;;;;;;1211.15;999.90;;;33.30;99.90;;;;;;5035980;28;20034;-66
2023/08/15 09:00:09;;;;;;;1450.35;999.90;;;33.20;99.90;;;;;;5035835;28;20018;-66
2023/08/15 09:02:36;;;;;;;1294.32;999.90;;;33.20;99.90;;;;;;5036002;28;20492;-65
2023/08/15 09:05:07;;;;;;;1181.65;999.90;;;33.20;99.90;;;;;;5035806;28;20026;-66
2023/08/15 09:07:35;;;;;;;1201.90;999.90;;;33.30;99.90;;;;;;5035697;28;20017;-64
2023/08/15 09:10:04;;;;;;;1192.68;999.90;;;33.40;99.90;;;;;;5033087;28;20025;-65
2023/08/15 09:12:36;;;;;;;1126.07;948.17;;;33.40;99.90;;;;;;5035617;28;20078;-65
2023/08/15 09:15:07;;;;;;;1191.63;999.90;;;33.30;99.90;;;;;;5035559;28;20112;-65
2023/08/15 09:17:34;;;;;;;1163.47;999.90;;;33.30;99.90;;;;;;5035634;28;20021;-65
2023/08/15 09:20:12;;;;;;;1195.07;999.90;;;33.30;99.90;;;;;;5033039;28;20021;-68
2023/08/15 09:22:41;;;;;;;1192.60;999.90;;;33.30;99.90;;;;;;5034797;28;20396;-65
2023/08/15 09:25:08;;;;;;;1112.10;931.53;;;33.30;99.90;;;;;;5032605;28;20017;-65
2023/08/15 09:27:37;;;;;;;1224.68;999.90;;;33.30;99.90;;;;;;5035090;28;20109;-66
2023/08/15 09:30:24;;;;;;;1175.32;999.90;;;33.30;99.90;;;;;;5033445;28;20029;-66
2023/08/15 09:32:51;;;;;;;1169.65;994.70;;;33.30;99.90;;;;;;5035104;28;20037;-65
2023/08/15 09:35:18;;;;;;;1145.22;982.72;;;33.20;99.90;;;;;;5032950;28;20027;-65
2023/08/15 09:37:47;;;;;;;1216.07;999.90;;;33.20;99.90;;;;;;5035005;28;20033;-66
2023/08/15 09:40:19;;;;;;;1222.13;999.90;;;33.10;99.90;;;;;;5034749;28;20072;-65
2023/08/15 09:42:46;;;;;;;1148.47;967.97;;;33.10;99.90;;;;;;5033460;28;20014;-66
2023/08/15 09:45:14;;;;;;;1109.45;904.35;;;33.10;99.90;;;;;;5033713;28;20037;-65
2023/08/15 09:47:41;;;;;;;1184.93;999.90;;;33.10;99.90;;;;;;5034660;28;20025;-66
2023/08/15 09:50:09;;;;;;;1191.20;999.90;;;33.00;99.90;;;;;;5035261;28;20093;-66
2023/08/15 09:52:41;;;;;;;1123.40;895.40;;;32.90;99.90;;;;;;5024275;28;20021;-65
2023/08/15 09:55:12;;;;;;;1115.90;954.53;;;32.80;99.90;;;;;;5021113;28;20415;-64
2023/08/15 09:57:41;;;;;;;1113.28;940.33;;;32.70;99.90;;;;;;5015229;28;20677;-66
2023/08/15 10:00:17;;;;;;;1132.10;990.97;;;32.60;99.90;;;;;;5022192;28;20510;-67
2023/08/15 10:02:48;;;;;;;1197.43;999.90;;;32.60;99.90;;;;;;5032808;28;20472;-66
2023/08/15 10:05:20;;;;;;;1327.07;999.90;;;32.60;99.90;;;;;;5034646;28;20030;-65
2023/08/15 10:07:48;;;;;;;1431.65;999.90;;;32.50;99.90;;;;;;5034939;28;20021;-68
2023/08/15 10:10:15;;;;;;;1362.15;999.90;;;32.50;99.90;;;;;;5034607;28;20036;-68
2023/08/15 10:12:44;;;;;;;1327.07;999.90;;;32.50;99.90;;;;;;5034477;28;20021;-66
2023/08/15 10:15:11;;;;;;;1311.70;999.90;;;32.50;99.90;;;;;;5034487;28;20391;-66
2023/08/15 10:17:39;;;;;;;1284.18;999.90;;;32.50;99.90;;;;;;5034425;28;20091;-66
2023/08/15 10:20:10;;;;;;;1464.78;999.90;;;32.50;99.90;;;;;;5034385;28;20045;-68
2023/08/15 10:22:39;;;;;;;1520.45;999.90;;;32.50;99.90;;;;;;5034487;28;20029;-68
2023/08/15 10:25:26;;;;;;;1598.75;999.90;;;32.40;99.90;;;;;;5034256;28;20025;-70
2023/08/15 10:27:55;;;;;;;1564.07;999.90;;;32.40;99.90;;;;;;5023669;28;20087;-66
2023/08/15 10:30:36;;;;;;;1597.22;999.90;;;32.40;99.90;;;;;;5029904;28;20025;-66
2023/08/15 10:33:22;;;;;;;1544.43;999.90;;;32.40;99.90;;;;;;5032969;28;20436;-69
2023/08/15 10:35:54;;;;;;;1528.15;999.90;;;32.30;99.90;;;;;;5031798;28;20053;-68
2023/08/15 10:38:31;;;;;;;1261.85;999.90;;;32.30;99.90;;;;;;5031681;28;20037;-67
2023/08/15 10:41:04;;;;;;;1213.13;987.22;;;32.20;99.90;;;;;;5033974;28;20132;-71
2023/08/15 10:43:34;;;;;;;1251.43;999.90;;;32.20;99.90;;;;;;5034202;28;20043;-66
2023/08/15 10:46:04;;;;;;;1364.50;999.90;;;32.20;99.90;;;;;;5030666;28;20087;-69
2023/08/15 10:48:52;;;;;;;1377.20;999.90;;;32.20;99.90;;;;;;5034171;28;20479;-70
2023/08/15 10:51:23;;;;;;;1506.20;999.90;;;32.20;99.90;;;;;;5033933;28;20091;-68
2023/08/15 10:53:51;;;;;;;1596.63;999.90;;;32.10;99.90;;;;;;5030123;28;20025;-67
2023/08/15 10:56:20;;;;;;;1561.20;999.90;;;32.00;99.90;;;;;;5033902;28;20025;-66
2023/08/15 10:58:47;;;;;;;1238.75;999.90;;;32.00;99.90;;;;;;5031981;28;20017;-65
2023/08/15 11:01:28;;;;;;;1581.53;999.90;;;32.00;99.90;;;;;;5032356;28;20091;-66
2023/08/15 11:03:56;;;;;;;1615.57;999.90;;;32.00;99.90;;;;;;5032745;28;20109;-67
2023/08/15 11:06:23;;;;;;;1547.38;999.90;;;31.90;99.90;;;;;;5033264;28;20071;-69
2023/08/15 11:08:53;;;;;;;1464.38;999.90;;;31.90;99.90;;;;;;5031420;28;20112;-69
2023/08/15 11:11:20;;;;;;;1385.47;999.90;;;31.80;99.90;;;;;;5031711;28;20045;-67
2023/08/15 11:13:49;;;;;;;1328.55;999.90;;;31.70;99.90;;;;;;5031903;28;20029;-71
2023/08/15 11:16:17;;;;;;;1275.88;999.90;;;31.70;99.90;;;;;;5029209;28;20022;-68
2023/08/15 11:18:45;;;;;;;1206.63;999.90;;;31.70;99.90;;;;;;5028904;28;20423;-68
2023/08/15 11:21:13;;;;;;;1283.43;999.90;;;31.60;99.90;;;;;;5030310;28;20474;-68
2023/08/15 11:23:41;;;;;;;769.85;692.58;;;31.60;99.90;;;;;;5033163;28;20021;-69
2023/08/15 11:26:10;;;;;;;837.75;755.40;;;31.60;99.90;;;;;;5029913;28;20032;-68
2023/08/15 11:28:37;;;;;;;558.30;500.00;;;31.60;99.90;;;;;;5033294;28;20443;-67
2023/08/15 11:31:13;;;;;;;607.72;544.38;;;31.60;99.90;;;;;;5032751;28;20480;-68
2023/08/15 11:33:40;;;;;;;584.25;523.60;;;31.50;99.90;;;;;;5033070;28;20044;-67
2023/08/15 11:36:10;;;;;;;776.88;699.10;;;31.50;99.90;;;;;;5030153;28;20048;-68
2023/08/15 11:38:38;;;;;;;999.85;899.20;;;31.40;99.90;;;;;;5032685;28;20380;-67
2023/08/15 11:41:05;;;;;;;1277.65;999.90;;;31.40;99.90;;;;;;5030276;28;20025;-68
2023/08/15 11:43:33;;;;;;;1227.75;999.90;;;31.30;99.90;;;;;;5030775;28;20032;-66
2023/08/15 11:46:03;;;;;;;1287.43;999.90;;;31.40;99.90;;;;;;5031337;28;20518;-67
2023/08/15 11:48:33;;;;;;;1006.05;904.17;;;31.40;99.90;;;;;;5031103;28;20421;-65
2023/08/15 11:51:01;;;;;;;1462.97;999.90;;;31.40;99.90;;;;;;5031480;28;20056;-67
2023/08/15 11:53:27;;;;;;;1517.88;999.90;;;31.40;99.90;;;;;;5033513;28;20036;-67
2023/08/15 11:55:54;;;;;;;1481.05;999.90;;;31.30;99.90;;;;;;5033679;28;20499;-67
2023/08/15 11:58:31;;;;;;;1505.68;999.90;;;31.30;99.90;;;;;;5032665;28;20440;-67
2023/08/15 12:01:06;;;;;;;1469.55;999.90;;;31.20;99.90;;;;;;5033415;28;20025;-66
2023/08/15 12:03:34;;;;;;;1258.68;999.90;;;31.20;99.90;;;;;;5029566;28;20026;-66